Terminal Aerodrome Forecast
Issued by NWS

Home | Current Version | Previous Version | Text Only | Print | Product List | Glossary On
Versions: 1 2 3 4 5 6 7 8 9 10 11 12 13 14 15 16
514
FTUS41 KILN 121143
TAFLCK
TAF
KLCK 121143Z 1212/1312 30014G22KT 3SM -SHSN BKN015 OVC030
     FM121300 30016G24KT P6SM BKN022 OVC035
     FM121700 31018G26KT P6SM OVC035
     FM122100 30018G26KT 4SM -SHSN SCT025 OVC035
      TEMPO 1222/1224 2SM -SHSN BKN025
     FM130100 29014G22KT P6SM SCT025 OVC035
     FM130700 26007KT P6SM SCT035=

USA.gov is the U.S. government's official web portal to all federal, state and local government web resources and services.